createdAt,value
2022-08-18T00:02:03.578Z,1.08
2022-08-18T00:05:29.959Z,0.80
2022-08-18T00:08:57.764Z,0.80
2022-08-18T00:12:27.967Z,1.48
2022-08-18T00:15:54.029Z,0.82
2022-08-18T00:19:19.145Z,1.00
2022-08-18T00:22:44.233Z,1.05
2022-08-18T00:26:10.605Z,0.80
2022-08-18T00:29:35.651Z,0.98
2022-08-18T00:33:10.508Z,1.00
2022-08-18T00:36:36.370Z,0.70
2022-08-18T00:40:03.839Z,1.30
2022-08-18T00:43:36.082Z,0.93
2022-08-18T00:47:04.773Z,1.05
2022-08-18T00:50:48.365Z,1.33
2022-08-18T00:54:29.983Z,1.20
2022-08-18T00:58:01.837Z,1.30
2022-08-18T01:01:29.924Z,1.20
2022-08-18T01:05:18.000Z,1.25
2022-08-18T01:08:44.449Z,1.63
2022-08-18T01:12:12.566Z,1.00
2022-08-18T01:15:55.031Z,1.10
2022-08-18T01:19:39.497Z,1.52
2022-08-18T01:23:19.634Z,0.90
2022-08-18T01:26:54.716Z,1.20
2022-08-18T01:30:25.459Z,1.13
2022-08-18T01:33:51.978Z,1.15
2022-08-18T01:37:20.267Z,0.98
2022-08-18T01:41:21.801Z,1.17
2022-08-18T01:44:33.783Z,1.92
2022-08-18T01:47:59.775Z,1.15
2022-08-18T01:51:36.634Z,0.90
2022-08-18T01:55:05.831Z,0.98
2022-08-18T01:58:35.783Z,0.80
2022-08-18T02:02:01.937Z,1.48
2022-08-18T02:05:34.961Z,1.00
2022-08-18T02:09:01.526Z,1.17
2022-08-18T02:12:27.147Z,1.10
2022-08-18T02:15:52.456Z,1.00
2022-08-18T02:19:19.274Z,1.13
2022-08-18T02:22:44.897Z,0.82
2022-08-18T02:26:12.716Z,1.05
2022-08-18T02:29:38.317Z,1.05
2022-08-18T02:33:07.575Z,1.15
2022-08-18T02:36:33.150Z,0.80
2022-08-18T02:39:58.585Z,1.33
2022-08-18T02:43:24.090Z,0.90
2022-08-18T02:46:52.417Z,1.08
2022-08-18T02:50:17.458Z,1.40
2022-08-18T02:53:43.905Z,1.63
2022-08-18T02:57:12.148Z,1.08
2022-08-18T03:00:39.049Z,1.10
2022-08-18T03:04:06.601Z,1.45
2022-08-18T03:07:32.563Z,1.52
2022-08-18T03:10:58.227Z,1.45
2022-08-18T03:14:23.629Z,1.65
2022-08-18T03:17:48.935Z,1.25
2022-08-18T03:21:15.507Z,1.40
2022-08-18T03:24:41.262Z,1.02
2022-08-18T03:31:32.295Z,1.40
2022-08-18T03:34:59.791Z,1.10
2022-08-18T03:38:24.939Z,2.10
2022-08-18T03:42:01.048Z,0.95
2022-08-18T03:45:32.016Z,1.33
2022-08-18T03:48:58.340Z,1.42
2022-08-18T03:52:28.075Z,1.35
2022-08-18T03:55:53.103Z,1.52
2022-08-18T03:59:20.042Z,2.00
2022-08-18T04:02:45.914Z,1.20
2022-08-18T04:09:57.024Z,1.58
2022-08-18T04:13:22.504Z,1.52
2022-08-18T04:16:48.995Z,1.52
2022-08-18T04:20:14.458Z,1.35
2022-08-18T04:23:44.068Z,1.38
2022-08-18T04:27:10.889Z,1.40
2022-08-18T04:30:37.530Z,1.20
2022-08-18T04:34:03.537Z,1.05
2022-08-18T04:37:30.385Z,2.08
2022-08-18T04:40:58.438Z,1.30
2022-08-18T04:44:23.466Z,1.80
2022-08-18T04:47:51.282Z,1.20
2022-08-18T04:52:34.539Z,1.45
2022-08-18T04:55:04.000Z,1.02
2022-08-18T04:58:29.348Z,1.35
2022-08-18T05:02:01.130Z,1.35
2022-08-18T05:05:27.565Z,1.35
2022-08-18T05:08:54.347Z,1.55
2022-08-18T05:12:20.675Z,2.30
2022-08-18T05:16:09.801Z,2.25
2022-08-18T05:19:42.376Z,1.65
2022-08-18T05:23:09.846Z,1.75
2022-08-18T05:26:35.851Z,1.52
2022-08-18T05:30:02.449Z,2.50
2022-08-18T05:33:27.626Z,1.60
2022-08-18T05:37:03.543Z,1.92
2022-08-18T05:40:34.745Z,2.35
2022-08-18T05:44:00.771Z,2.15
2022-08-18T05:47:46.213Z,2.65
2022-08-18T05:51:22.441Z,3.08
2022-08-18T05:58:41.671Z,2.70
2022-08-18T06:02:31.407Z,2.97
2022-08-18T06:06:05.185Z,3.55
2022-08-18T06:09:45.954Z,2.88
2022-08-18T06:13:38.358Z,2.40
2022-08-18T06:17:09.674Z,2.60
2022-08-18T06:20:53.545Z,2.80
2022-08-18T06:24:35.480Z,2.70
2022-08-18T06:28:35.746Z,2.78
2022-08-18T06:32:15.834Z,3.42
2022-08-18T06:35:54.321Z,2.55
2022-08-18T06:39:45.621Z,2.58
2022-08-18T06:43:13.115Z,1.70
2022-08-18T06:46:42.496Z,2.88
2022-08-18T06:50:31.667Z,2.63
2022-08-18T06:54:05.699Z,2.53
2022-08-18T06:57:52.844Z,2.88
2022-08-18T07:01:22.718Z,2.58
2022-08-18T07:04:59.529Z,2.85
2022-08-18T07:08:36.706Z,2.53
2022-08-18T07:12:20.313Z,1.92
2022-08-18T07:15:51.901Z,1.90
2022-08-18T07:19:28.210Z,1.83
2022-08-18T07:23:21.700Z,2.10
2022-08-18T07:26:58.455Z,1.80
2022-08-18T07:30:23.926Z,2.35
2022-08-18T07:34:12.480Z,1.33
2022-08-18T07:37:43.447Z,1.58
2022-08-18T07:41:38.120Z,2.58
2022-08-18T07:45:05.480Z,2.00
2022-08-18T07:48:40.558Z,2.25
2022-08-18T07:52:22.600Z,1.67
2022-08-18T07:56:01.859Z,2.13
2022-08-18T07:59:42.804Z,2.13
2022-08-18T08:03:23.614Z,1.50
2022-08-18T08:07:23.982Z,2.08
2022-08-18T08:11:17.044Z,2.75
2022-08-18T08:14:58.216Z,2.17
2022-08-18T08:18:41.300Z,2.53
2022-08-18T08:22:23.527Z,2.10
2022-08-18T08:25:55.844Z,2.67
2022-08-18T08:29:29.820Z,2.55
2022-08-18T08:33:12.920Z,2.30
2022-08-18T08:36:45.941Z,2.20
2022-08-18T08:40:27.928Z,1.48
2022-08-18T08:44:32.862Z,1.70
2022-08-18T08:48:09.930Z,1.38
2022-08-18T08:51:43.099Z,1.90
2022-08-18T08:55:16.229Z,1.40
2022-08-18T08:59:13.639Z,1.73
2022-08-18T09:02:48.292Z,1.30
2022-08-18T09:06:25.933Z,1.15
2022-08-18T09:10:22.725Z,1.30
2022-08-18T09:18:06.870Z,0.50
2022-08-18T09:21:54.339Z,0.95
2022-08-18T09:25:31.846Z,0.90
2022-08-18T09:29:27.384Z,1.10
2022-08-18T09:33:30.073Z,1.15
2022-08-18T09:37:33.242Z,0.93
2022-08-18T09:41:27.085Z,1.50
2022-08-18T09:44:58.080Z,1.05
2022-08-18T09:48:30.378Z,1.42
2022-08-18T09:51:58.734Z,1.00
2022-08-18T09:55:57.974Z,0.90
2022-08-18T09:59:38.260Z,0.70
2022-08-18T10:03:12.090Z,0.95
2022-08-18T10:06:37.625Z,0.73
2022-08-18T10:11:00.549Z,0.80
2022-08-18T10:14:40.540Z,0.60
2022-08-18T10:18:46.929Z,0.60
2022-08-18T10:22:35.480Z,0.80
2022-08-18T10:26:04.390Z,0.80
2022-08-18T10:29:51.033Z,0.80
2022-08-18T10:33:38.988Z,1.00
2022-08-18T10:37:11.838Z,0.82
2022-08-18T10:40:43.654Z,1.20
2022-08-18T10:48:19.566Z,0.90
2022-08-18T10:56:10.852Z,1.10
2022-08-18T10:59:49.112Z,1.17
2022-08-18T11:03:51.697Z,0.68
2022-08-18T11:07:18.180Z,1.27
2022-08-18T11:11:06.589Z,1.25
2022-08-18T11:14:50.127Z,1.90
2022-08-18T11:18:28.927Z,1.48
2022-08-18T11:22:31.537Z,1.20
2022-08-18T11:26:13.016Z,1.63
2022-08-18T11:29:39.259Z,1.30
2022-08-18T11:37:02.516Z,1.38
2022-08-18T11:41:08.572Z,1.30
2022-08-18T11:44:25.070Z,1.17
2022-08-18T11:48:11.302Z,1.00
2022-08-18T11:52:03.762Z,0.93
2022-08-18T11:55:37.133Z,0.90
2022-08-18T11:59:05.266Z,1.05
2022-08-18T12:02:34.103Z,1.00
2022-08-18T12:06:10.300Z,0.95
2022-08-18T12:10:29.358Z,1.00
2022-08-18T12:14:00.191Z,1.02
2022-08-18T12:17:36.622Z,0.85
2022-08-18T12:21:02.861Z,0.88
2022-08-18T12:24:36.437Z,0.80
2022-08-18T12:28:05.463Z,1.30
2022-08-18T12:31:47.473Z,1.42
2022-08-18T12:35:14.866Z,1.25
2022-08-18T12:38:44.104Z,1.05
2022-08-18T12:42:17.477Z,0.90
2022-08-18T12:45:42.608Z,0.80
2022-08-18T12:49:10.886Z,1.02
2022-08-18T12:52:36.917Z,1.20
2022-08-18T12:56:05.375Z,1.00
2022-08-18T12:59:33.077Z,1.00
2022-08-18T13:02:59.273Z,1.00
2022-08-18T13:06:25.122Z,0.80
2022-08-18T13:09:54.403Z,0.70
2022-08-18T13:13:21.313Z,1.02
2022-08-18T13:16:53.935Z,0.70
2022-08-18T13:20:21.079Z,0.60
2022-08-18T13:23:46.322Z,0.70
2022-08-18T13:27:23.357Z,0.60
2022-08-18T13:30:49.224Z,0.90
2022-08-18T13:34:19.137Z,1.00
2022-08-18T13:37:44.352Z,0.70
2022-08-18T13:41:15.785Z,0.50
2022-08-18T13:44:42.646Z,0.43
2022-08-18T13:48:18.167Z,0.50
2022-08-18T13:51:44.099Z,0.57
2022-08-18T13:55:16.736Z,0.40
2022-08-18T13:58:53.348Z,0.50
2022-08-18T14:02:18.829Z,0.80
2022-08-18T14:05:51.314Z,0.82
2022-08-18T14:09:19.835Z,0.68
2022-08-18T14:12:54.929Z,0.50
2022-08-18T14:16:23.467Z,0.70
2022-08-18T14:20:14.832Z,0.70
2022-08-18T14:24:04.691Z,0.70
2022-08-18T14:27:35.504Z,0.70
2022-08-18T14:31:03.444Z,0.50
2022-08-18T14:34:32.696Z,0.77
2022-08-18T14:37:58.352Z,0.93
2022-08-18T14:41:27.161Z,0.80
2022-08-18T14:44:52.586Z,0.77
2022-08-18T14:48:37.758Z,0.70
2022-08-18T14:52:03.265Z,0.77
2022-08-18T14:55:35.927Z,0.95
2022-08-18T15:02:26.258Z,0.90
2022-08-18T15:05:51.381Z,0.95
2022-08-18T15:09:16.662Z,0.57
2022-08-18T15:16:14.041Z,1.10
2022-08-18T15:20:00.404Z,1.00
2022-08-18T15:27:19.436Z,1.02
2022-08-18T15:30:46.342Z,1.13
2022-08-18T15:34:16.957Z,1.13
2022-08-18T15:37:47.508Z,0.90
2022-08-18T15:41:29.254Z,0.93
2022-08-18T15:44:56.696Z,0.85
2022-08-18T15:48:22.981Z,0.50
2022-08-18T15:51:48.738Z,0.60
2022-08-18T15:55:16.439Z,0.57
2022-08-18T15:58:46.979Z,0.70
2022-08-18T16:02:18.175Z,0.70
2022-08-18T16:05:52.532Z,0.57
2022-08-18T16:09:19.017Z,0.60
2022-08-18T16:12:46.198Z,0.60
2022-08-18T16:16:13.190Z,0.65
2022-08-18T16:19:38.936Z,0.50
2022-08-18T16:23:05.355Z,0.50
2022-08-18T16:26:30.735Z,0.52
2022-08-18T16:36:47.346Z,1.00
2022-08-18T16:40:13.155Z,1.25
2022-08-18T16:43:39.774Z,0.80
2022-08-18T16:47:08.361Z,0.88
2022-08-18T16:50:34.010Z,1.00
2022-08-18T16:53:59.502Z,0.90
2022-08-18T17:01:49.435Z,1.27
2022-08-18T17:05:22.420Z,0.90
2022-08-18T17:08:47.465Z,0.90
2022-08-18T17:12:15.301Z,1.00
2022-08-18T17:15:40.321Z,1.10
2022-08-18T17:19:06.288Z,0.70
2022-08-18T17:22:32.023Z,1.15
2022-08-18T17:25:59.436Z,1.30
2022-08-18T17:29:33.233Z,1.45
2022-08-18T17:33:05.431Z,1.35
2022-08-18T17:36:52.889Z,1.10
2022-08-18T17:40:28.783Z,1.13
2022-08-18T17:47:36.034Z,1.02
2022-08-18T17:51:34.232Z,1.27
2022-08-18T17:55:29.136Z,1.10
2022-08-18T17:59:46.497Z,1.40
2022-08-18T18:03:13.339Z,1.27
2022-08-18T18:06:41.889Z,1.17
2022-08-18T18:10:27.688Z,1.33
2022-08-18T18:14:24.259Z,1.00
2022-08-18T18:18:22.563Z,1.33
2022-08-18T18:22:05.054Z,1.60
2022-08-18T18:25:34.708Z,0.82
2022-08-18T18:29:22.169Z,1.20
2022-08-18T18:32:59.235Z,0.95
2022-08-18T18:36:32.723Z,1.27
2022-08-18T18:40:07.458Z,1.45
2022-08-18T18:43:35.599Z,1.45
2022-08-18T18:47:10.927Z,1.20
2022-08-18T18:50:55.567Z,1.45
2022-08-18T18:54:32.770Z,1.30
2022-08-18T18:58:07.385Z,1.73
2022-08-18T19:01:45.285Z,1.40
2022-08-18T19:06:18.342Z,1.40
2022-08-18T19:09:54.390Z,1.40
2022-08-18T19:13:33.042Z,1.60
2022-08-18T19:17:29.311Z,1.25
2022-08-18T19:22:04.683Z,1.17
2022-08-18T19:25:08.132Z,1.73
2022-08-18T19:29:12.770Z,1.73
2022-08-18T19:32:38.636Z,1.63
2022-08-18T19:36:10.527Z,2.60
2022-08-18T19:40:13.626Z,2.67
2022-08-18T19:43:58.440Z,2.78
2022-08-18T19:47:42.071Z,2.58
2022-08-18T19:51:32.009Z,3.10
2022-08-18T19:55:33.371Z,3.60
2022-08-18T19:59:22.883Z,2.97
2022-08-18T20:03:07.145Z,3.15
2022-08-18T20:06:41.415Z,3.22
2022-08-18T20:10:21.433Z,3.13
2022-08-18T20:13:55.404Z,3.40
2022-08-18T20:17:27.014Z,3.28
2022-08-18T20:21:13.746Z,2.97
2022-08-18T20:25:20.874Z,3.50
2022-08-18T20:28:49.012Z,2.75
2022-08-18T20:32:27.941Z,3.05
2022-08-18T20:36:31.767Z,2.47
2022-08-18T20:39:58.206Z,2.55
2022-08-18T20:43:41.467Z,2.70
2022-08-18T20:47:31.122Z,2.78
2022-08-18T20:51:13.830Z,1.90
2022-08-18T20:55:17.111Z,2.13
2022-08-18T20:58:49.210Z,1.95
2022-08-18T21:02:34.841Z,2.85
2022-08-18T21:06:00.002Z,2.60
2022-08-18T21:09:26.646Z,2.50
2022-08-18T21:12:54.414Z,1.90
2022-08-18T21:16:38.743Z,2.20
2022-08-18T21:20:08.923Z,1.80
2022-08-18T21:23:39.747Z,1.92
2022-08-18T21:27:12.945Z,2.30
2022-08-18T21:30:53.623Z,2.38
2022-08-18T21:34:30.152Z,2.28
2022-08-18T21:38:03.968Z,2.38
2022-08-18T21:41:44.541Z,2.08
2022-08-18T21:45:17.349Z,1.92
2022-08-18T21:48:49.049Z,2.38
2022-08-18T21:52:26.897Z,1.98
2022-08-18T21:55:55.123Z,1.48
2022-08-18T21:59:28.150Z,2.28
2022-08-18T22:03:24.482Z,2.03
2022-08-18T22:07:02.384Z,2.13
2022-08-18T22:10:49.332Z,2.35
2022-08-18T22:14:24.381Z,2.15
2022-08-18T22:18:18.076Z,2.58
2022-08-18T22:21:55.135Z,3.33
2022-08-18T22:25:22.882Z,2.50
2022-08-18T22:28:53.523Z,2.20
2022-08-18T22:32:21.488Z,2.80
2022-08-18T22:35:55.423Z,2.80
2022-08-18T22:39:25.940Z,2.38
2022-08-18T22:42:51.920Z,2.40
2022-08-18T22:46:21.708Z,2.22
2022-08-18T22:49:49.854Z,2.90
2022-08-18T22:53:31.823Z,3.10
2022-08-18T22:56:57.897Z,2.72
2022-08-18T23:00:24.628Z,2.75
2022-08-18T23:03:50.758Z,2.38
2022-08-18T23:07:15.856Z,2.63
2022-08-18T23:10:41.215Z,3.00
2022-08-18T23:14:07.479Z,3.17
2022-08-18T23:17:32.647Z,3.30
2022-08-18T23:21:02.030Z,3.20
2022-08-18T23:24:27.882Z,3.17
2022-08-18T23:31:09.014Z,3.50
2022-08-18T23:34:37.628Z,3.35
2022-08-18T23:38:03.414Z,3.13
2022-08-18T23:44:53.736Z,3.83
2022-08-18T23:48:21.225Z,3.75
2022-08-18T23:51:48.862Z,4.35
2022-08-18T23:55:15.692Z,3.50
2022-08-18T23:58:41.929Z,3.85
